sensor_id;sensor_type;location;lat;lon;timestamp;P1;durP1;ratioP1;P2;durP2;ratioP2
22144;SDS011;11238;48.730;11.566;2023-01-20T00:01:09;12.32;;;7.95;;
22144;SDS011;11238;48.730;11.566;2023-01-20T00:03:36;12.68;;;7.80;;
22144;SDS011;11238;48.730;11.566;2023-01-20T00:06:03;13.10;;;8.55;;
22144;SDS011;11238;48.730;11.566;2023-01-20T00:08:29;13.60;;;8.57;;
22144;SDS011;11238;48.730;11.566;2023-01-20T00:10:57;14.07;;;9.05;;
22144;SDS011;11238;48.730;11.566;2023-01-20T00:13:27;11.95;;;8.20;;
22144;SDS011;11238;48.730;11.566;2023-01-20T00:15:53;12.05;;;8.07;;
22144;SDS011;11238;48.730;11.566;2023-01-20T00:18:18;12.38;;;8.25;;
22144;SDS011;11238;48.730;11.566;2023-01-20T00:20:44;13.05;;;8.27;;
22144;SDS011;11238;48.730;11.566;2023-01-20T00:23:10;13.00;;;8.70;;
22144;SDS011;11238;48.730;11.566;2023-01-20T00:25:36;14.35;;;8.65;;
22144;SDS011;11238;48.730;11.566;2023-01-20T00:28:02;14.55;;;8.90;;
22144;SDS011;11238;48.730;11.566;2023-01-20T00:30:29;13.18;;;8.60;;
22144;SDS011;11238;48.730;11.566;2023-01-20T00:32:55;16.35;;;9.75;;
22144;SDS011;11238;48.730;11.566;2023-01-20T00:35:21;15.80;;;10.25;;
22144;SDS011;11238;48.730;11.566;2023-01-20T00:37:47;17.10;;;10.82;;
22144;SDS011;11238;48.730;11.566;2023-01-20T00:40:13;14.57;;;9.63;;
22144;SDS011;11238;48.730;11.566;2023-01-20T00:42:39;14.02;;;9.18;;
22144;SDS011;11238;48.730;11.566;2023-01-20T00:45:05;14.57;;;8.57;;
22144;SDS011;11238;48.730;11.566;2023-01-20T00:47:31;14.27;;;8.63;;
22144;SDS011;11238;48.730;11.566;2023-01-20T00:49:57;15.60;;;8.70;;
22144;SDS011;11238;48.730;11.566;2023-01-20T00:52:23;14.82;;;9.15;;
22144;SDS011;11238;48.730;11.566;2023-01-20T00:54:49;12.13;;;7.90;;
22144;SDS011;11238;48.730;11.566;2023-01-20T00:57:15;11.95;;;7.82;;
22144;SDS011;11238;48.730;11.566;2023-01-20T00:59:43;14.05;;;8.20;;
22144;SDS011;11238;48.730;11.566;2023-01-20T01:02:09;12.82;;;8.15;;
22144;SDS011;11238;48.730;11.566;2023-01-20T01:04:35;15.25;;;8.13;;
22144;SDS011;11238;48.730;11.566;2023-01-20T01:07:01;13.38;;;8.43;;
22144;SDS011;11238;48.730;11.566;2023-01-20T01:09:27;12.35;;;7.90;;
22144;SDS011;11238;48.730;11.566;2023-01-20T01:11:53;15.38;;;8.20;;
22144;SDS011;11238;48.730;11.566;2023-01-20T01:14:22;14.45;;;7.68;;
22144;SDS011;11238;48.730;11.566;2023-01-20T01:16:49;11.80;;;8.10;;
22144;SDS011;11238;48.730;11.566;2023-01-20T01:19:16;14.50;;;8.88;;
22144;SDS011;11238;48.730;11.566;2023-01-20T01:21:43;13.68;;;8.50;;
22144;SDS011;11238;48.730;11.566;2023-01-20T01:24:08;13.98;;;8.10;;
22144;SDS011;11238;48.730;11.566;2023-01-20T01:26:35;14.77;;;8.10;;
22144;SDS011;11238;48.730;11.566;2023-01-20T01:29:01;13.57;;;8.63;;
22144;SDS011;11238;48.730;11.566;2023-01-20T01:31:27;15.27;;;9.00;;
22144;SDS011;11238;48.730;11.566;2023-01-20T01:33:53;13.05;;;8.02;;
22144;SDS011;11238;48.730;11.566;2023-01-20T01:36:19;14.95;;;8.73;;
22144;SDS011;11238;48.730;11.566;2023-01-20T01:38:44;13.35;;;8.10;;
22144;SDS011;11238;48.730;11.566;2023-01-20T01:41:11;14.25;;;8.45;;
22144;SDS011;11238;48.730;11.566;2023-01-20T01:43:38;13.45;;;8.23;;
22144;SDS011;11238;48.730;11.566;2023-01-20T01:46:23;12.73;;;8.15;;
22144;SDS011;11238;48.730;11.566;2023-01-20T01:48:49;11.27;;;8.23;;
22144;SDS011;11238;48.730;11.566;2023-01-20T01:51:17;17.33;;;9.13;;
22144;SDS011;11238;48.730;11.566;2023-01-20T01:53:52;15.73;;;8.35;;
22144;SDS011;11238;48.730;11.566;2023-01-20T01:56:22;16.05;;;8.88;;
22144;SDS011;11238;48.730;11.566;2023-01-20T01:58:50;13.65;;;8.43;;
22144;SDS011;11238;48.730;11.566;2023-01-20T02:01:17;15.18;;;8.75;;
22144;SDS011;11238;48.730;11.566;2023-01-20T02:03:48;13.98;;;8.75;;
22144;SDS011;11238;48.730;11.566;2023-01-20T02:06:20;16.75;;;8.57;;
22144;SDS011;11238;48.730;11.566;2023-01-20T02:08:48;15.00;;;8.93;;
22144;SDS011;11238;48.730;11.566;2023-01-20T02:11:15;17.42;;;8.75;;
22144;SDS011;11238;48.730;11.566;2023-01-20T02:13:41;15.70;;;9.30;;
22144;SDS011;11238;48.730;11.566;2023-01-20T02:16:15;13.13;;;8.27;;
22144;SDS011;11238;48.730;11.566;2023-01-20T02:18:54;15.32;;;8.98;;
22144;SDS011;11238;48.730;11.566;2023-01-20T02:21:48;15.20;;;8.55;;
22144;SDS011;11238;48.730;11.566;2023-01-20T02:35:26;15.65;;;8.93;;
22144;SDS011;11238;48.730;11.566;2023-01-20T02:38:05;15.43;;;9.48;;
22144;SDS011;11238;48.730;11.566;2023-01-20T02:46:02;12.38;;;8.50;;
22144;SDS011;11238;48.730;11.566;2023-01-20T02:49:07;15.45;;;8.88;;
22144;SDS011;11238;48.730;11.566;2023-01-20T02:51:46;14.98;;;8.60;;
22144;SDS011;11238;48.730;11.566;2023-01-20T02:54:18;13.75;;;8.35;;
22144;SDS011;11238;48.730;11.566;2023-01-20T02:56:47;13.68;;;8.43;;
22144;SDS011;11238;48.730;11.566;2023-01-20T02:59:16;15.43;;;8.50;;
22144;SDS011;11238;48.730;11.566;2023-01-20T03:01:56;14.70;;;8.48;;
22144;SDS011;11238;48.730;11.566;2023-01-20T03:04:31;17.70;;;8.55;;
22144;SDS011;11238;48.730;11.566;2023-01-20T03:07:00;16.83;;;8.35;;
22144;SDS011;11238;48.730;11.566;2023-01-20T03:09:29;13.50;;;8.60;;
22144;SDS011;11238;48.730;11.566;2023-01-20T03:12:00;14.47;;;8.93;;
22144;SDS011;11238;48.730;11.566;2023-01-20T03:14:31;15.52;;;9.13;;
22144;SDS011;11238;48.730;11.566;2023-01-20T03:16:57;13.98;;;8.23;;
22144;SDS011;11238;48.730;11.566;2023-01-20T03:19:23;13.05;;;8.43;;
22144;SDS011;11238;48.730;11.566;2023-01-20T03:21:49;17.98;;;9.30;;
22144;SDS011;11238;48.730;11.566;2023-01-20T03:24:17;15.00;;;8.63;;
22144;SDS011;11238;48.730;11.566;2023-01-20T03:26:44;14.20;;;9.25;;
22144;SDS011;11238;48.730;11.566;2023-01-20T03:29:10;14.40;;;8.60;;
22144;SDS011;11238;48.730;11.566;2023-01-20T03:31:47;14.98;;;8.95;;
22144;SDS011;11238;48.730;11.566;2023-01-20T03:34:20;13.68;;;8.45;;
22144;SDS011;11238;48.730;11.566;2023-01-20T03:36:47;16.50;;;8.85;;
22144;SDS011;11238;48.730;11.566;2023-01-20T03:39:14;11.18;;;8.15;;
22144;SDS011;11238;48.730;11.566;2023-01-20T03:41:43;17.25;;;8.95;;
22144;SDS011;11238;48.730;11.566;2023-01-20T03:45:36;12.63;;;8.35;;
22144;SDS011;11238;48.730;11.566;2023-01-20T03:50:22;16.48;;;9.10;;
22144;SDS011;11238;48.730;11.566;2023-01-20T03:53:19;15.15;;;8.55;;
22144;SDS011;11238;48.730;11.566;2023-01-20T03:58:28;15.88;;;8.15;;
22144;SDS011;11238;48.730;11.566;2023-01-20T04:00:57;14.43;;;9.07;;
22144;SDS011;11238;48.730;11.566;2023-01-20T04:03:27;12.82;;;8.98;;
22144;SDS011;11238;48.730;11.566;2023-01-20T04:05:56;17.08;;;9.50;;
22144;SDS011;11238;48.730;11.566;2023-01-20T04:08:27;12.52;;;8.75;;
22144;SDS011;11238;48.730;11.566;2023-01-20T04:10:58;15.27;;;8.85;;
22144;SDS011;11238;48.730;11.566;2023-01-20T04:13:25;14.52;;;9.50;;
22144;SDS011;11238;48.730;11.566;2023-01-20T04:15:51;15.75;;;9.23;;
22144;SDS011;11238;48.730;11.566;2023-01-20T04:18:17;17.42;;;9.75;;
22144;SDS011;11238;48.730;11.566;2023-01-20T04:20:48;13.07;;;9.32;;
22144;SDS011;11238;48.730;11.566;2023-01-20T04:23:37;15.90;;;10.23;;
22144;SDS011;11238;48.730;11.566;2023-01-20T04:26:04;16.95;;;9.10;;
22144;SDS011;11238;48.730;11.566;2023-01-20T04:28:30;15.02;;;9.23;;
22144;SDS011;11238;48.730;11.566;2023-01-20T04:30:59;15.32;;;9.43;;
22144;SDS011;11238;48.730;11.566;2023-01-20T04:33:25;14.88;;;9.38;;
22144;SDS011;11238;48.730;11.566;2023-01-20T04:35:51;16.35;;;10.00;;
22144;SDS011;11238;48.730;11.566;2023-01-20T04:38:17;16.75;;;9.75;;
22144;SDS011;11238;48.730;11.566;2023-01-20T04:40:43;17.67;;;9.77;;
22144;SDS011;11238;48.730;11.566;2023-01-20T04:43:09;16.38;;;9.82;;
22144;SDS011;11238;48.730;11.566;2023-01-20T04:45:36;16.08;;;9.73;;
22144;SDS011;11238;48.730;11.566;2023-01-20T04:48:06;14.65;;;10.05;;
22144;SDS011;11238;48.730;11.566;2023-01-20T04:50:36;17.13;;;9.43;;
22144;SDS011;11238;48.730;11.566;2023-01-20T04:53:03;16.20;;;9.60;;
22144;SDS011;11238;48.730;11.566;2023-01-20T04:55:30;15.73;;;9.43;;
22144;SDS011;11238;48.730;11.566;2023-01-20T04:57:57;19.90;;;11.93;;
22144;SDS011;11238;48.730;11.566;2023-01-20T05:00:22;16.98;;;10.45;;
22144;SDS011;11238;48.730;11.566;2023-01-20T05:02:49;17.92;;;10.13;;
22144;SDS011;11238;48.730;11.566;2023-01-20T05:05:15;17.90;;;10.10;;
22144;SDS011;11238;48.730;11.566;2023-01-20T05:07:41;14.45;;;9.45;;
22144;SDS011;11238;48.730;11.566;2023-01-20T05:10:07;16.52;;;9.30;;
22144;SDS011;11238;48.730;11.566;2023-01-20T05:12:34;18.70;;;9.82;;
22144;SDS011;11238;48.730;11.566;2023-01-20T05:15:00;14.27;;;9.48;;
22144;SDS011;11238;48.730;11.566;2023-01-20T05:17:26;15.70;;;9.63;;
22144;SDS011;11238;48.730;11.566;2023-01-20T05:19:52;15.18;;;9.60;;
22144;SDS011;11238;48.730;11.566;2023-01-20T05:22:18;14.82;;;9.45;;
22144;SDS011;11238;48.730;11.566;2023-01-20T05:24:44;13.38;;;9.48;;
22144;SDS011;11238;48.730;11.566;2023-01-20T05:27:10;16.00;;;10.02;;
22144;SDS011;11238;48.730;11.566;2023-01-20T05:29:35;14.68;;;9.45;;
22144;SDS011;11238;48.730;11.566;2023-01-20T05:32:01;14.18;;;9.10;;
22144;SDS011;11238;48.730;11.566;2023-01-20T05:34:27;16.10;;;10.32;;
22144;SDS011;11238;48.730;11.566;2023-01-20T05:36:52;14.95;;;9.60;;
22144;SDS011;11238;48.730;11.566;2023-01-20T05:39:18;17.85;;;10.90;;
22144;SDS011;11238;48.730;11.566;2023-01-20T05:41:44;15.60;;;10.35;;
22144;SDS011;11238;48.730;11.566;2023-01-20T05:44:11;17.63;;;11.00;;
22144;SDS011;11238;48.730;11.566;2023-01-20T05:46:38;17.85;;;11.10;;
22144;SDS011;11238;48.730;11.566;2023-01-20T05:49:03;17.05;;;10.02;;
22144;SDS011;11238;48.730;11.566;2023-01-20T05:51:29;15.98;;;10.90;;
22144;SDS011;11238;48.730;11.566;2023-01-20T05:53:56;16.83;;;10.82;;
22144;SDS011;11238;48.730;11.566;2023-01-20T05:56:21;16.38;;;10.48;;
22144;SDS011;11238;48.730;11.566;2023-01-20T05:58:47;18.70;;;11.55;;
22144;SDS011;11238;48.730;11.566;2023-01-20T06:01:13;14.88;;;10.00;;
22144;SDS011;11238;48.730;11.566;2023-01-20T06:03:39;20.42;;;11.10;;
22144;SDS011;11238;48.730;11.566;2023-01-20T06:06:06;18.50;;;11.23;;
22144;SDS011;11238;48.730;11.566;2023-01-20T06:08:33;20.02;;;11.40;;
22144;SDS011;11238;48.730;11.566;2023-01-20T06:11:00;19.17;;;11.55;;
22144;SDS011;11238;48.730;11.566;2023-01-20T06:13:26;17.70;;;11.15;;
22144;SDS011;11238;48.730;11.566;2023-01-20T06:15:52;17.35;;;11.65;;
22144;SDS011;11238;48.730;11.566;2023-01-20T06:18:19;16.83;;;10.98;;
22144;SDS011;11238;48.730;11.566;2023-01-20T06:20:46;20.60;;;11.32;;
22144;SDS011;11238;48.730;11.566;2023-01-20T06:23:12;20.58;;;11.90;;
22144;SDS011;11238;48.730;11.566;2023-01-20T06:25:38;16.77;;;11.23;;
22144;SDS011;11238;48.730;11.566;2023-01-20T06:28:04;17.33;;;11.32;;
22144;SDS011;11238;48.730;11.566;2023-01-20T06:30:30;17.88;;;11.48;;
22144;SDS011;11238;48.730;11.566;2023-01-20T06:32:56;17.58;;;10.90;;
22144;SDS011;11238;48.730;11.566;2023-01-20T06:35:22;15.77;;;10.15;;
22144;SDS011;11238;48.730;11.566;2023-01-20T06:37:49;18.60;;;11.02;;
22144;SDS011;11238;48.730;11.566;2023-01-20T06:40:15;16.33;;;10.63;;
22144;SDS011;11238;48.730;11.566;2023-01-20T06:42:41;20.05;;;11.25;;
22144;SDS011;11238;48.730;11.566;2023-01-20T06:45:08;17.27;;;11.05;;
22144;SDS011;11238;48.730;11.566;2023-01-20T06:47:34;18.77;;;11.15;;
22144;SDS011;11238;48.730;11.566;2023-01-20T06:49:59;20.85;;;12.00;;
22144;SDS011;11238;48.730;11.566;2023-01-20T06:52:25;18.90;;;11.10;;
22144;SDS011;11238;48.730;11.566;2023-01-20T06:54:52;21.27;;;11.48;;
22144;SDS011;11238;48.730;11.566;2023-01-20T06:57:17;19.38;;;12.00;;
22144;SDS011;11238;48.730;11.566;2023-01-20T06:59:43;19.50;;;11.50;;
22144;SDS011;11238;48.730;11.566;2023-01-20T07:02:12;17.70;;;11.95;;
22144;SDS011;11238;48.730;11.566;2023-01-20T07:04:38;19.88;;;11.68;;
22144;SDS011;11238;48.730;11.566;2023-01-20T07:07:04;21.17;;;12.00;;
22144;SDS011;11238;48.730;11.566;2023-01-20T07:09:31;16.92;;;11.27;;
22144;SDS011;11238;48.730;11.566;2023-01-20T07:11:56;17.17;;;11.25;;
22144;SDS011;11238;48.730;11.566;2023-01-20T07:14:37;20.58;;;11.90;;
22144;SDS011;11238;48.730;11.566;2023-01-20T07:17:03;20.38;;;12.70;;
22144;SDS011;11238;48.730;11.566;2023-01-20T07:19:30;25.92;;;13.05;;
22144;SDS011;11238;48.730;11.566;2023-01-20T07:21:56;20.17;;;13.00;;
22144;SDS011;11238;48.730;11.566;2023-01-20T07:24:22;21.95;;;13.82;;
22144;SDS011;11238;48.730;11.566;2023-01-20T07:26:50;22.67;;;14.32;;
22144;SDS011;11238;48.730;11.566;2023-01-20T07:29:16;26.00;;;14.50;;
22144;SDS011;11238;48.730;11.566;2023-01-20T07:31:42;24.20;;;14.90;;
22144;SDS011;11238;48.730;11.566;2023-01-20T07:34:08;21.92;;;14.30;;
22144;SDS011;11238;48.730;11.566;2023-01-20T07:36:34;21.92;;;14.60;;
22144;SDS011;11238;48.730;11.566;2023-01-20T07:39:00;23.00;;;14.52;;
22144;SDS011;11238;48.730;11.566;2023-01-20T07:41:48;22.80;;;14.63;;
22144;SDS011;11238;48.730;11.566;2023-01-20T07:44:14;26.15;;;15.85;;
22144;SDS011;11238;48.730;11.566;2023-01-20T07:46:41;23.80;;;14.70;;
22144;SDS011;11238;48.730;11.566;2023-01-20T07:49:06;25.17;;;15.18;;
22144;SDS011;11238;48.730;11.566;2023-01-20T07:51:32;23.85;;;15.95;;
22144;SDS011;11238;48.730;11.566;2023-01-20T07:53:58;27.17;;;15.45;;
22144;SDS011;11238;48.730;11.566;2023-01-20T07:56:25;26.15;;;15.80;;
22144;SDS011;11238;48.730;11.566;2023-01-20T07:58:52;24.80;;;16.27;;
22144;SDS011;11238;48.730;11.566;2023-01-20T08:01:20;28.60;;;17.45;;
22144;SDS011;11238;48.730;11.566;2023-01-20T08:03:50;30.98;;;17.90;;
22144;SDS011;11238;48.730;11.566;2023-01-20T08:06:17;26.98;;;17.67;;
22144;SDS011;11238;48.730;11.566;2023-01-20T08:08:45;30.55;;;18.17;;
22144;SDS011;11238;48.730;11.566;2023-01-20T08:11:12;27.98;;;17.70;;
22144;SDS011;11238;48.730;11.566;2023-01-20T08:13:39;30.67;;;19.08;;
22144;SDS011;11238;48.730;11.566;2023-01-20T08:16:06;33.20;;;19.52;;
22144;SDS011;11238;48.730;11.566;2023-01-20T08:18:33;34.65;;;20.02;;
22144;SDS011;11238;48.730;11.566;2023-01-20T08:21:01;29.90;;;19.77;;
22144;SDS011;11238;48.730;11.566;2023-01-20T08:23:34;35.05;;;19.95;;
22144;SDS011;11238;48.730;11.566;2023-01-20T08:26:02;36.65;;;21.05;;
22144;SDS011;11238;48.730;11.566;2023-01-20T08:28:30;33.65;;;21.65;;
22144;SDS011;11238;48.730;11.566;2023-01-20T08:31:07;34.97;;;21.92;;
22144;SDS011;11238;48.730;11.566;2023-01-20T08:33:36;35.90;;;22.83;;
22144;SDS011;11238;48.730;11.566;2023-01-20T08:36:03;38.92;;;23.05;;
22144;SDS011;11238;48.730;11.566;2023-01-20T08:38:34;35.83;;;22.80;;
22144;SDS011;11238;48.730;11.566;2023-01-20T08:41:00;41.78;;;23.80;;
22144;SDS011;11238;48.730;11.566;2023-01-20T08:43:26;36.83;;;22.58;;
22144;SDS011;11238;48.730;11.566;2023-01-20T08:45:59;34.72;;;22.05;;
22144;SDS011;11238;48.730;11.566;2023-01-20T08:48:27;36.83;;;22.50;;
22144;SDS011;11238;48.730;11.566;2023-01-20T08:50:53;35.83;;;20.92;;
22144;SDS011;11238;48.730;11.566;2023-01-20T08:53:19;34.78;;;21.88;;
22144;SDS011;11238;48.730;11.566;2023-01-20T08:55:52;40.35;;;22.58;;
22144;SDS011;11238;48.730;11.566;2023-01-20T08:58:20;35.60;;;21.55;;
22144;SDS011;11238;48.730;11.566;2023-01-20T09:00:45;36.00;;;22.38;;
22144;SDS011;11238;48.730;11.566;2023-01-20T09:03:12;36.35;;;22.60;;
22144;SDS011;11238;48.730;11.566;2023-01-20T09:05:38;36.72;;;24.02;;
22144;SDS011;11238;48.730;11.566;2023-01-20T09:08:03;38.35;;;24.48;;
22144;SDS011;11238;48.730;11.566;2023-01-20T09:10:33;36.50;;;23.50;;
22144;SDS011;11238;48.730;11.566;2023-01-20T09:12:59;40.88;;;24.88;;
22144;SDS011;11238;48.730;11.566;2023-01-20T09:15:24;39.92;;;24.50;;
22144;SDS011;11238;48.730;11.566;2023-01-20T09:17:50;37.63;;;24.23;;
22144;SDS011;11238;48.730;11.566;2023-01-20T09:20:16;38.25;;;24.98;;
22144;SDS011;11238;48.730;11.566;2023-01-20T09:22:43;38.72;;;23.30;;
22144;SDS011;11238;48.730;11.566;2023-01-20T09:25:09;34.60;;;22.58;;
22144;SDS011;11238;48.730;11.566;2023-01-20T09:27:35;35.85;;;23.02;;
22144;SDS011;11238;48.730;11.566;2023-01-20T09:30:02;38.88;;;24.00;;
22144;SDS011;11238;48.730;11.566;2023-01-20T09:32:28;38.65;;;24.20;;
22144;SDS011;11238;48.730;11.566;2023-01-20T09:34:54;38.15;;;25.20;;
22144;SDS011;11238;48.730;11.566;2023-01-20T09:37:21;42.70;;;26.17;;
22144;SDS011;11238;48.730;11.566;2023-01-20T09:40:25;37.95;;;24.73;;
22144;SDS011;11238;48.730;11.566;2023-01-20T09:49:43;39.78;;;24.48;;
22144;SDS011;11238;48.730;11.566;2023-01-20T09:52:50;43.92;;;26.15;;
22144;SDS011;11238;48.730;11.566;2023-01-20T09:58:11;41.20;;;26.08;;
22144;SDS011;11238;48.730;11.566;2023-01-20T10:00:46;41.03;;;26.33;;
22144;SDS011;11238;48.730;11.566;2023-01-20T10:03:24;40.50;;;25.90;;
22144;SDS011;11238;48.730;11.566;2023-01-20T10:06:03;41.17;;;25.40;;
22144;SDS011;11238;48.730;11.566;2023-01-20T10:08:44;46.53;;;26.15;;
22144;SDS011;11238;48.730;11.566;2023-01-20T10:11:17;41.38;;;26.50;;
22144;SDS011;11238;48.730;11.566;2023-01-20T10:13:49;44.70;;;27.42;;
22144;SDS011;11238;48.730;11.566;2023-01-20T10:16:28;48.63;;;28.27;;
22144;SDS011;11238;48.730;11.566;2023-01-20T10:19:23;47.13;;;27.80;;
22144;SDS011;11238;48.730;11.566;2023-01-20T10:28:58;44.95;;;27.15;;
22144;SDS011;11238;48.730;11.566;2023-01-20T10:31:27;45.75;;;29.13;;
22144;SDS011;11238;48.730;11.566;2023-01-20T10:34:08;48.95;;;28.88;;
22144;SDS011;11238;48.730;11.566;2023-01-20T10:36:40;53.97;;;31.55;;
22144;SDS011;11238;48.730;11.566;2023-01-20T10:39:16;56.58;;;31.13;;
22144;SDS011;11238;48.730;11.566;2023-01-20T10:42:01;54.10;;;32.92;;
22144;SDS011;11238;48.730;11.566;2023-01-20T10:44:29;55.03;;;31.50;;
22144;SDS011;11238;48.730;11.566;2023-01-20T10:52:22;46.13;;;28.17;;
22144;SDS011;11238;48.730;11.566;2023-01-20T10:58:43;48.53;;;29.00;;
22144;SDS011;11238;48.730;11.566;2023-01-20T11:01:05;50.83;;;29.83;;
22144;SDS011;11238;48.730;11.566;2023-01-20T11:03:36;48.65;;;30.73;;
22144;SDS011;11238;48.730;11.566;2023-01-20T11:06:06;51.30;;;31.58;;
22144;SDS011;11238;48.730;11.566;2023-01-20T11:08:34;50.78;;;31.08;;
22144;SDS011;11238;48.730;11.566;2023-01-20T11:11:08;53.85;;;31.98;;
22144;SDS011;11238;48.730;11.566;2023-01-20T11:13:37;53.03;;;31.38;;
22144;SDS011;11238;48.730;11.566;2023-01-20T11:16:05;54.10;;;31.35;;
22144;SDS011;11238;48.730;11.566;2023-01-20T11:18:55;54.72;;;32.10;;
22144;SDS011;11238;48.730;11.566;2023-01-20T11:21:25;57.08;;;32.72;;
22144;SDS011;11238;48.730;11.566;2023-01-20T11:23:53;56.35;;;32.40;;
22144;SDS011;11238;48.730;11.566;2023-01-20T11:29:02;54.10;;;32.38;;
22144;SDS011;11238;48.730;11.566;2023-01-20T11:31:35;56.45;;;33.08;;
22144;SDS011;11238;48.730;11.566;2023-01-20T11:39:32;58.53;;;34.08;;
22144;SDS011;11238;48.730;11.566;2023-01-20T11:42:22;58.78;;;34.47;;
22144;SDS011;11238;48.730;11.566;2023-01-20T11:52:27;58.92;;;33.15;;
22144;SDS011;11238;48.730;11.566;2023-01-20T11:55:12;60.63;;;33.15;;
22144;SDS011;11238;48.730;11.566;2023-01-20T12:00:40;57.63;;;33.20;;
22144;SDS011;11238;48.730;11.566;2023-01-20T12:06:02;59.78;;;33.08;;
22144;SDS011;11238;48.730;11.566;2023-01-20T12:08:41;56.03;;;32.50;;
22144;SDS011;11238;48.730;11.566;2023-01-20T12:11:36;61.28;;;34.08;;
22144;SDS011;11238;48.730;11.566;2023-01-20T12:19:43;63.22;;;35.13;;
22144;SDS011;11238;48.730;11.566;2023-01-20T12:22:30;61.20;;;35.38;;
22144;SDS011;11238;48.730;11.566;2023-01-20T12:25:03;55.20;;;34.15;;
22144;SDS011;11238;48.730;11.566;2023-01-20T12:27:46;61.10;;;34.00;;
22144;SDS011;11238;48.730;11.566;2023-01-20T12:30:58;56.97;;;32.92;;
22144;SDS011;11238;48.730;11.566;2023-01-20T12:33:27;56.67;;;33.65;;
22144;SDS011;11238;48.730;11.566;2023-01-20T12:55:28;52.80;;;30.65;;
22144;SDS011;11238;48.730;11.566;2023-01-20T12:58:10;54.03;;;31.10;;
22144;SDS011;11238;48.730;11.566;2023-01-20T13:03:27;52.63;;;31.52;;
22144;SDS011;11238;48.730;11.566;2023-01-20T13:06:21;49.63;;;29.42;;
22144;SDS011;11238;48.730;11.566;2023-01-20T13:12:03;49.15;;;29.83;;
22144;SDS011;11238;48.730;11.566;2023-01-20T13:14:57;47.05;;;28.77;;
22144;SDS011;11238;48.730;11.566;2023-01-20T13:17:31;53.35;;;31.98;;
22144;SDS011;11238;48.730;11.566;2023-01-20T13:20:04;51.28;;;31.08;;
22144;SDS011;11238;48.730;11.566;2023-01-20T13:22:40;51.75;;;31.60;;
22144;SDS011;11238;48.730;11.566;2023-01-20T13:25:11;52.08;;;31.23;;
22144;SDS011;11238;48.730;11.566;2023-01-20T13:27:39;47.55;;;29.40;;
22144;SDS011;11238;48.730;11.566;2023-01-20T13:30:36;53.08;;;31.58;;
22144;SDS011;11238;48.730;11.566;2023-01-20T13:33:24;57.60;;;31.80;;
22144;SDS011;11238;48.730;11.566;2023-01-20T13:35:57;57.50;;;32.50;;
22144;SDS011;11238;48.730;11.566;2023-01-20T13:38:30;56.13;;;31.58;;
22144;SDS011;11238;48.730;11.566;2023-01-20T13:40:59;56.67;;;32.45;;
22144;SDS011;11238;48.730;11.566;2023-01-20T13:43:34;57.95;;;33.70;;
22144;SDS011;11238;48.730;11.566;2023-01-20T13:48:27;55.65;;;32.22;;
22144;SDS011;11238;48.730;11.566;2023-01-20T13:53:40;60.17;;;32.90;;
22144;SDS011;11238;48.730;11.566;2023-01-20T13:56:23;58.45;;;32.30;;
22144;SDS011;11238;48.730;11.566;2023-01-20T13:58:51;55.47;;;32.63;;
22144;SDS011;11238;48.730;11.566;2023-01-20T14:01:17;60.17;;;32.97;;
22144;SDS011;11238;48.730;11.566;2023-01-20T14:03:59;58.45;;;32.28;;
22144;SDS011;11238;48.730;11.566;2023-01-20T14:06:28;57.30;;;31.42;;
22144;SDS011;11238;48.730;11.566;2023-01-20T14:08:55;57.95;;;32.20;;
22144;SDS011;11238;48.730;11.566;2023-01-20T14:11:22;55.90;;;31.02;;
22144;SDS011;11238;48.730;11.566;2023-01-20T14:16:27;53.55;;;30.73;;
22144;SDS011;11238;48.730;11.566;2023-01-20T14:18:55;50.78;;;29.65;;
22144;SDS011;11238;48.730;11.566;2023-01-20T14:21:25;50.65;;;28.55;;
22144;SDS011;11238;48.730;11.566;2023-01-20T14:23:52;51.80;;;30.45;;
22144;SDS011;11238;48.730;11.566;2023-01-20T14:31:36;53.50;;;29.27;;
22144;SDS011;11238;48.730;11.566;2023-01-20T14:36:51;51.05;;;28.88;;
22144;SDS011;11238;48.730;11.566;2023-01-20T14:39:20;49.92;;;27.27;;
22144;SDS011;11238;48.730;11.566;2023-01-20T14:41:51;44.60;;;25.80;;
22144;SDS011;11238;48.730;11.566;2023-01-20T14:44:22;35.83;;;22.08;;
22144;SDS011;11238;48.730;11.566;2023-01-20T14:46:51;31.73;;;19.52;;
22144;SDS011;11238;48.730;11.566;2023-01-20T14:49:20;33.55;;;19.27;;
22144;SDS011;11238;48.730;11.566;2023-01-20T14:52:15;31.55;;;19.50;;
22144;SDS011;11238;48.730;11.566;2023-01-20T14:54:53;33.33;;;19.13;;
22144;SDS011;11238;48.730;11.566;2023-01-20T14:57:21;32.65;;;19.80;;
22144;SDS011;11238;48.730;11.566;2023-01-20T15:00:08;29.65;;;18.65;;
22144;SDS011;11238;48.730;11.566;2023-01-20T15:02:36;28.80;;;18.17;;
22144;SDS011;11238;48.730;11.566;2023-01-20T15:05:22;27.45;;;17.92;;
22144;SDS011;11238;48.730;11.566;2023-01-20T15:10:39;23.92;;;15.70;;
22144;SDS011;11238;48.730;11.566;2023-01-20T15:13:22;23.85;;;15.07;;
22144;SDS011;11238;48.730;11.566;2023-01-20T15:15:50;21.63;;;13.98;;
22144;SDS011;11238;48.730;11.566;2023-01-20T15:18:18;21.00;;;12.88;;
22144;SDS011;11238;48.730;11.566;2023-01-20T15:25:55;18.63;;;11.77;;
22144;SDS011;11238;48.730;11.566;2023-01-20T15:28:33;16.58;;;10.50;;
22144;SDS011;11238;48.730;11.566;2023-01-20T15:31:11;17.35;;;10.88;;
22144;SDS011;11238;48.730;11.566;2023-01-20T15:33:38;17.38;;;10.25;;
22144;SDS011;11238;48.730;11.566;2023-01-20T15:36:25;17.98;;;11.02;;
22144;SDS011;11238;48.730;11.566;2023-01-20T15:38:53;17.80;;;10.50;;
22144;SDS011;11238;48.730;11.566;2023-01-20T15:41:20;19.63;;;10.55;;
22144;SDS011;11238;48.730;11.566;2023-01-20T15:43:46;14.88;;;9.65;;
22144;SDS011;11238;48.730;11.566;2023-01-20T15:46:14;14.57;;;9.52;;
22144;SDS011;11238;48.730;11.566;2023-01-20T15:48:41;14.63;;;9.43;;
22144;SDS011;11238;48.730;11.566;2023-01-20T15:51:11;16.67;;;9.40;;
22144;SDS011;11238;48.730;11.566;2023-01-20T15:53:38;15.00;;;9.45;;
22144;SDS011;11238;48.730;11.566;2023-01-20T15:56:04;15.77;;;8.95;;
22144;SDS011;11238;48.730;11.566;2023-01-20T15:58:31;15.20;;;9.02;;
22144;SDS011;11238;48.730;11.566;2023-01-20T16:00:57;16.25;;;9.02;;
22144;SDS011;11238;48.730;11.566;2023-01-20T16:03:24;15.50;;;8.77;;
22144;SDS011;11238;48.730;11.566;2023-01-20T16:05:52;15.10;;;8.95;;
22144;SDS011;11238;48.730;11.566;2023-01-20T16:08:23;13.63;;;8.82;;
22144;SDS011;11238;48.730;11.566;2023-01-20T16:10:53;14.20;;;8.52;;
22144;SDS011;11238;48.730;11.566;2023-01-20T16:13:19;16.60;;;8.30;;
22144;SDS011;11238;48.730;11.566;2023-01-20T16:15:45;16.02;;;8.93;;
22144;SDS011;11238;48.730;11.566;2023-01-20T16:18:12;16.50;;;9.40;;
22144;SDS011;11238;48.730;11.566;2023-01-20T16:20:42;15.90;;;9.20;;
22144;SDS011;11238;48.730;11.566;2023-01-20T16:23:10;17.23;;;8.70;;
22144;SDS011;11238;48.730;11.566;2023-01-20T16:25:37;14.43;;;8.70;;
22144;SDS011;11238;48.730;11.566;2023-01-20T16:28:17;15.52;;;8.60;;
22144;SDS011;11238;48.730;11.566;2023-01-20T16:30:52;16.98;;;8.95;;
22144;SDS011;11238;48.730;11.566;2023-01-20T16:33:24;14.20;;;9.38;;
22144;SDS011;11238;48.730;11.566;2023-01-20T16:35:54;20.42;;;8.98;;